Webcam Rollhalt 06

Webcam Rollhalt 24

 

Flugplatz - Wetter - Augsburg

[Quelle: ADDS]
METAR
EDMA 270620Z 18003KT 8000 FEW033 BKN066 02/01 Q1017 =
EDMA 270544Z 2706/2715 18005KT 4000 BR BKN045 BECMG 2706/2708 8000
TAF
EDMA 270544Z 2706/2715 18005KT 4000 BR BKN045 BECMG 2706/2708 8000 =
SR / SS: 06:52 / 16:07 UTC (Augsburg 2020-01-27)

Flugplatz - Wetter - Laupheim

[Quelle: ADDS]
METAR
ETHL 270620Z 24004KT 4500 BR SCT009 BKN040 02/01 Q1017 GRN BLU TEMPO GRN =
COR ETHL 270548Z 2706/2715 22007KT 8000 NSW FEW010 BKN060 TEMPO 2706/2710 22005KT 4000 BR BKN010 BKN030
TAF
COR ETHL 270548Z 2706/2715 22007KT 8000 NSW FEW010 BKN060 TEMPO 2706/2710 22005KT 4000 BR BKN010 BKN030 =
SR / SS: 06:56 / 16:12 UTC (Laupheim 2020-01-27)

Flugplatz - Wetter - Memmingen

[Quelle: ADDS]
METAR
EDJA 270620Z 21008KT 9999 BKN044 03/02 Q1017 =
EDJA 270500Z 2706/2715 22010KT 9999 SCT035 BKN055 BECMG 2713/2715 21005KT
TAF
EDJA 270500Z 2706/2715 22010KT 9999 SCT035 BKN055 BECMG 2713/2715 21005KT =
SR / SS: 06:52 / 16:11 UTC (Memmingen 2020-01-27)

Flugplatz - Wetter - Neuburg/Donau

[Quelle: ADDS]
METAR
ETSN 270620Z 00000KT 1800 BR SCT040 BKN055 M01/M02 Q1017 YLO YLO BECMG GRN =
ETSN 270520Z 2706/2715 VRB02KT 2000 BR BKN040 BECMG 2706/2708 19005KT 4000 BR BKN050 BECMG 2708/2710 22005KT 9999 NSW BKN070 BY ETGL
TAF
ETSN 270520Z 2706/2715 VRB02KT 2000 BR BKN040 BECMG 2706/2708 19005KT 4000 BR BKN050 BECMG 2708/2710 22005KT 9999 NSW BKN070 BY ETGL =
SR / SS: 06:51 / 16:05 UTC (Neuburg 2020-01-27)

Flugplatz - Wetter - Stuttgart

[Quelle: ADDS]
METAR
EDDS 270620Z 20003KT 170V300 9999 BKN046 03/02 Q1016 NOSIG =
EDDS 270500Z 2706/2806 VRB03KT CAVOK BECMG 2709/2712 18005KT TEMPO 2715/2803 RA BECMG 2803/2806 20010KT PROB40 TEMPO 2803/2806 SHRA BKN015CB
TAF
EDDS 270500Z 2706/2806 VRB03KT CAVOK BECMG 2709/2712 18005KT TEMPO 2715/2803 RA BECMG 2803/2806 20010KT PROB40 TEMPO 2803/2806 SHRA BKN015CB =
SR / SS: 06:59 / 16:13 UTC (Stuttgart 2020-01-27)

Flugplatz - Wetter - Niederstetten

[Quelle: ADDS]
METAR
ETHN 270620Z 18006KT 9999 BKN016 BKN038 02/02 Q1015 WHT BLU TEMPO WHT =
COR ETHN 270550Z 2706/2715 18007KT 9999 NSW FEW015 BKN035 TEMPO 2706/2715 18007KT 8000 NSW BKN015
TAF
COR ETHN 270550Z 2706/2715 18007KT 9999 NSW FEW015 BKN035 TEMPO 2706/2715 18007KT 8000 NSW BKN015 =
SR / SS: 06:59 / 16:08 UTC (Niederstetten 2020-01-27)